Terminal Aerodrome Forecast
Issued by NWS

Home | Current Version | Previous Version | Text Only | Print | Product List | Glossary On
Versions: 1 2 3 4 5 6 7 8 9 10 11 12 13 14 15
000
FTUS42 KILM 221100
TAFCRE
TAF
KCRE 221130Z 2212/2312 36006KT 3SM BR VCSH OVC003
      TEMPO 2212/2214 2SM SHRA BR OVC005
     FM221600 36005KT P6SM SCT006 OVC008
     FM222100 01003KT P6SM OVC010
     FM230400 03003KT 3SM BR VCSH OVC006=

USA.gov is the U.S. government's official web portal to all federal, state and local government web resources and services.